sensor_id;sensor_type;location;lat;lon;timestamp;temperature;humidity
30520;DHT22;17300;50.374;8.006;2022-08-21T00:00:18;19.50;45.90
30520;DHT22;17300;50.374;8.006;2022-08-21T00:02:47;19.50;46.00
30520;DHT22;17300;50.374;8.006;2022-08-21T00:05:14;19.50;46.00
30520;DHT22;17300;50.374;8.006;2022-08-21T00:07:41;19.50;46.00
30520;DHT22;17300;50.374;8.006;2022-08-21T00:10:10;19.40;46.10
30520;DHT22;17300;50.374;8.006;2022-08-21T00:12:37;19.40;46.20
30520;DHT22;17300;50.374;8.006;2022-08-21T00:15:05;19.40;46.20
30520;DHT22;17300;50.374;8.006;2022-08-21T00:17:34;19.30;46.20
30520;DHT22;17300;50.374;8.006;2022-08-21T00:20:01;19.30;46.20
30520;DHT22;17300;50.374;8.006;2022-08-21T00:22:27;19.30;46.30
30520;DHT22;17300;50.374;8.006;2022-08-21T00:24:54;19.20;46.20
30520;DHT22;17300;50.374;8.006;2022-08-21T00:27:22;19.20;46.20
30520;DHT22;17300;50.374;8.006;2022-08-21T00:29:49;19.10;46.40
30520;DHT22;17300;50.374;8.006;2022-08-21T00:32:20;19.10;46.40
30520;DHT22;17300;50.374;8.006;2022-08-21T00:34:47;19.10;46.70
30520;DHT22;17300;50.374;8.006;2022-08-21T00:37:13;19.10;46.60
30520;DHT22;17300;50.374;8.006;2022-08-21T00:39:40;19.00;46.60
30520;DHT22;17300;50.374;8.006;2022-08-21T00:42:07;19.00;46.70
30520;DHT22;17300;50.374;8.006;2022-08-21T00:44:35;19.00;46.80
30520;DHT22;17300;50.374;8.006;2022-08-21T00:47:02;19.00;47.00
30520;DHT22;17300;50.374;8.006;2022-08-21T00:49:29;19.00;47.00
30520;DHT22;17300;50.374;8.006;2022-08-21T00:51:59;18.90;47.00
30520;DHT22;17300;50.374;8.006;2022-08-21T00:54:28;18.90;47.20
30520;DHT22;17300;50.374;8.006;2022-08-21T00:57:00;18.90;47.20
30520;DHT22;17300;50.374;8.006;2022-08-21T00:59:28;18.90;47.30
30520;DHT22;17300;50.374;8.006;2022-08-21T01:01:58;18.90;47.20
30520;DHT22;17300;50.374;8.006;2022-08-21T01:04:25;18.80;47.30
30520;DHT22;17300;50.374;8.006;2022-08-21T01:06:51;18.80;47.30
30520;DHT22;17300;50.374;8.006;2022-08-21T01:09:19;18.80;47.50
30520;DHT22;17300;50.374;8.006;2022-08-21T01:11:46;18.80;47.60
30520;DHT22;17300;50.374;8.006;2022-08-21T01:14:14;18.70;47.60
30520;DHT22;17300;50.374;8.006;2022-08-21T01:16:42;18.70;47.60
30520;DHT22;17300;50.374;8.006;2022-08-21T01:19:12;18.70;47.70
30520;DHT22;17300;50.374;8.006;2022-08-21T01:21:41;18.70;47.80
30520;DHT22;17300;50.374;8.006;2022-08-21T01:24:08;18.60;47.80
30520;DHT22;17300;50.374;8.006;2022-08-21T01:26:36;18.60;47.80
30520;DHT22;17300;50.374;8.006;2022-08-21T01:29:07;18.60;47.90
30520;DHT22;17300;50.374;8.006;2022-08-21T01:31:36;18.60;48.10
30520;DHT22;17300;50.374;8.006;2022-08-21T01:34:03;18.60;48.10
30520;DHT22;17300;50.374;8.006;2022-08-21T01:36:31;18.50;48.00
30520;DHT22;17300;50.374;8.006;2022-08-21T01:41:28;18.50;48.20
30520;DHT22;17300;50.374;8.006;2022-08-21T01:43:55;18.40;48.20
30520;DHT22;17300;50.374;8.006;2022-08-21T01:46:21;18.40;48.30
30520;DHT22;17300;50.374;8.006;2022-08-21T01:48:49;18.40;48.30
30520;DHT22;17300;50.374;8.006;2022-08-21T01:51:16;18.40;48.40
30520;DHT22;17300;50.374;8.006;2022-08-21T01:53:43;18.40;48.40
30520;DHT22;17300;50.374;8.006;2022-08-21T01:56:13;18.30;48.40
30520;DHT22;17300;50.374;8.006;2022-08-21T01:58:43;18.30;48.60
30520;DHT22;17300;50.374;8.006;2022-08-21T02:01:10;18.30;48.60
30520;DHT22;17300;50.374;8.006;2022-08-21T02:03:38;18.20;48.30
30520;DHT22;17300;50.374;8.006;2022-08-21T02:06:06;18.20;48.50
30520;DHT22;17300;50.374;8.006;2022-08-21T02:08:33;18.20;48.60
30520;DHT22;17300;50.374;8.006;2022-08-21T02:11:00;18.10;48.50
30520;DHT22;17300;50.374;8.006;2022-08-21T02:13:27;18.10;48.60
30520;DHT22;17300;50.374;8.006;2022-08-21T02:15:55;18.10;48.60
30520;DHT22;17300;50.374;8.006;2022-08-21T02:18:22;18.00;48.70
30520;DHT22;17300;50.374;8.006;2022-08-21T02:20:50;18.00;48.70
30520;DHT22;17300;50.374;8.006;2022-08-21T02:23:16;18.00;48.80
30520;DHT22;17300;50.374;8.006;2022-08-21T02:25:43;18.00;48.80
30520;DHT22;17300;50.374;8.006;2022-08-21T02:28:13;18.00;48.90
30520;DHT22;17300;50.374;8.006;2022-08-21T02:30:42;18.00;49.10
30520;DHT22;17300;50.374;8.006;2022-08-21T02:33:11;17.90;49.00
30520;DHT22;17300;50.374;8.006;2022-08-21T02:35:40;17.90;49.10
30520;DHT22;17300;50.374;8.006;2022-08-21T02:38:09;17.90;49.10
30520;DHT22;17300;50.374;8.006;2022-08-21T02:40:39;17.90;49.20
30520;DHT22;17300;50.374;8.006;2022-08-21T02:43:07;17.90;49.20
30520;DHT22;17300;50.374;8.006;2022-08-21T02:45:34;17.80;49.20
30520;DHT22;17300;50.374;8.006;2022-08-21T02:48:04;17.80;49.20
30520;DHT22;17300;50.374;8.006;2022-08-21T02:50:34;17.80;49.30
30520;DHT22;17300;50.374;8.006;2022-08-21T02:53:02;17.70;49.50
30520;DHT22;17300;50.374;8.006;2022-08-21T02:55:31;17.80;49.40
30520;DHT22;17300;50.374;8.006;2022-08-21T02:57:58;17.70;49.50
30520;DHT22;17300;50.374;8.006;2022-08-21T03:00:28;17.70;49.50
30520;DHT22;17300;50.374;8.006;2022-08-21T03:02:55;17.70;49.70
30520;DHT22;17300;50.374;8.006;2022-08-21T03:05:23;17.70;49.70
30520;DHT22;17300;50.374;8.006;2022-08-21T03:07:53;17.70;49.70
30520;DHT22;17300;50.374;8.006;2022-08-21T03:10:21;17.60;49.60
30520;DHT22;17300;50.374;8.006;2022-08-21T03:12:48;17.60;49.70
30520;DHT22;17300;50.374;8.006;2022-08-21T03:15:17;17.60;49.60
30520;DHT22;17300;50.374;8.006;2022-08-21T03:17:45;17.60;49.80
30520;DHT22;17300;50.374;8.006;2022-08-21T03:20:14;17.50;49.70
30520;DHT22;17300;50.374;8.006;2022-08-21T03:22:41;17.50;49.90
30520;DHT22;17300;50.374;8.006;2022-08-21T03:25:10;17.50;49.80
30520;DHT22;17300;50.374;8.006;2022-08-21T03:27:37;17.50;50.00
30520;DHT22;17300;50.374;8.006;2022-08-21T03:30:06;17.40;49.90
30520;DHT22;17300;50.374;8.006;2022-08-21T03:32:33;17.40;50.00
30520;DHT22;17300;50.374;8.006;2022-08-21T03:35:00;17.40;50.00
30520;DHT22;17300;50.374;8.006;2022-08-21T03:37:27;17.40;50.00
30520;DHT22;17300;50.374;8.006;2022-08-21T03:39:54;17.40;50.00
30520;DHT22;17300;50.374;8.006;2022-08-21T03:42:22;17.30;50.00
30520;DHT22;17300;50.374;8.006;2022-08-21T03:44:49;17.30;50.10
30520;DHT22;17300;50.374;8.006;2022-08-21T03:47:16;17.30;50.10
30520;DHT22;17300;50.374;8.006;2022-08-21T03:49:43;17.20;50.10
30520;DHT22;17300;50.374;8.006;2022-08-21T03:52:10;17.20;50.10
30520;DHT22;17300;50.374;8.006;2022-08-21T03:54:37;17.20;50.20
30520;DHT22;17300;50.374;8.006;2022-08-21T03:57:06;17.20;50.80
30520;DHT22;17300;50.374;8.006;2022-08-21T03:59:34;17.20;50.20
30520;DHT22;17300;50.374;8.006;2022-08-21T04:02:03;17.10;50.20
30520;DHT22;17300;50.374;8.006;2022-08-21T04:04:31;17.10;50.20
30520;DHT22;17300;50.374;8.006;2022-08-21T04:06:58;17.10;50.20
30520;DHT22;17300;50.374;8.006;2022-08-21T04:09:26;17.10;50.30
30520;DHT22;17300;50.374;8.006;2022-08-21T04:11:53;17.10;50.30
30520;DHT22;17300;50.374;8.006;2022-08-21T04:14:20;17.10;50.40
30520;DHT22;17300;50.374;8.006;2022-08-21T04:16:48;17.00;50.40
30520;DHT22;17300;50.374;8.006;2022-08-21T04:19:15;17.00;50.50
30520;DHT22;17300;50.374;8.006;2022-08-21T04:21:42;17.00;50.40
30520;DHT22;17300;50.374;8.006;2022-08-21T04:24:10;17.00;50.50
30520;DHT22;17300;50.374;8.006;2022-08-21T04:26:37;16.90;50.50
30520;DHT22;17300;50.374;8.006;2022-08-21T04:29:05;16.90;50.60
30520;DHT22;17300;50.374;8.006;2022-08-21T04:31:32;16.90;50.60
30520;DHT22;17300;50.374;8.006;2022-08-21T04:34:00;16.90;50.60
30520;DHT22;17300;50.374;8.006;2022-08-21T04:36:27;16.90;50.70
30520;DHT22;17300;50.374;8.006;2022-08-21T04:38:53;16.90;50.70
30520;DHT22;17300;50.374;8.006;2022-08-21T04:41:20;16.80;50.80
30520;DHT22;17300;50.374;8.006;2022-08-21T04:43:47;16.80;50.80
30520;DHT22;17300;50.374;8.006;2022-08-21T04:46:14;16.80;50.90
30520;DHT22;17300;50.374;8.006;2022-08-21T04:48:40;16.80;50.90
30520;DHT22;17300;50.374;8.006;2022-08-21T04:51:12;16.80;51.00
30520;DHT22;17300;50.374;8.006;2022-08-21T04:53:41;16.80;51.40
30520;DHT22;17300;50.374;8.006;2022-08-21T04:56:11;16.80;51.30
30520;DHT22;17300;50.374;8.006;2022-08-21T04:58:39;16.80;51.40
30520;DHT22;17300;50.374;8.006;2022-08-21T05:01:12;16.80;51.30
30520;DHT22;17300;50.374;8.006;2022-08-21T05:03:40;16.90;51.50
30520;DHT22;17300;50.374;8.006;2022-08-21T05:06:11;16.90;51.40
30520;DHT22;17300;50.374;8.006;2022-08-21T05:08:40;16.90;51.60
30520;DHT22;17300;50.374;8.006;2022-08-21T05:11:07;16.90;51.50
30520;DHT22;17300;50.374;8.006;2022-08-21T05:13:35;16.90;51.50
30520;DHT22;17300;50.374;8.006;2022-08-21T05:16:02;17.00;51.70
30520;DHT22;17300;50.374;8.006;2022-08-21T05:18:29;17.00;51.70
30520;DHT22;17300;50.374;8.006;2022-08-21T05:20:56;17.00;51.70
30520;DHT22;17300;50.374;8.006;2022-08-21T05:23:24;17.00;51.80
30520;DHT22;17300;50.374;8.006;2022-08-21T05:25:51;17.10;52.10
30520;DHT22;17300;50.374;8.006;2022-08-21T05:28:19;17.20;52.10
30520;DHT22;17300;50.374;8.006;2022-08-21T05:30:46;17.20;52.10
30520;DHT22;17300;50.374;8.006;2022-08-21T05:33:12;17.30;52.20
30520;DHT22;17300;50.374;8.006;2022-08-21T05:35:39;17.30;52.20
30520;DHT22;17300;50.374;8.006;2022-08-21T05:38:06;17.40;52.40
30520;DHT22;17300;50.374;8.006;2022-08-21T05:40:34;17.50;52.50
30520;DHT22;17300;50.374;8.006;2022-08-21T05:43:02;17.60;52.60
30520;DHT22;17300;50.374;8.006;2022-08-21T05:45:32;17.70;52.70
30520;DHT22;17300;50.374;8.006;2022-08-21T05:48:05;17.90;52.90
30520;DHT22;17300;50.374;8.006;2022-08-21T05:50:32;18.10;53.10
30520;DHT22;17300;50.374;8.006;2022-08-21T05:52:59;18.30;53.60
30520;DHT22;17300;50.374;8.006;2022-08-21T05:55:26;18.50;53.10
30520;DHT22;17300;50.374;8.006;2022-08-21T05:57:54;18.70;53.10
30520;DHT22;17300;50.374;8.006;2022-08-21T06:00:20;19.00;53.30
30520;DHT22;17300;50.374;8.006;2022-08-21T06:02:48;19.30;53.50
30520;DHT22;17300;50.374;8.006;2022-08-21T06:05:15;19.70;53.90
30520;DHT22;17300;50.374;8.006;2022-08-21T06:07:42;20.20;54.50
30520;DHT22;17300;50.374;8.006;2022-08-21T06:10:10;20.70;55.10
30520;DHT22;17300;50.374;8.006;2022-08-21T06:12:36;21.30;55.60
30520;DHT22;17300;50.374;8.006;2022-08-21T06:15:06;21.90;55.50
30520;DHT22;17300;50.374;8.006;2022-08-21T06:17:33;22.50;55.10
30520;DHT22;17300;50.374;8.006;2022-08-21T06:19:59;23.20;55.10
30520;DHT22;17300;50.374;8.006;2022-08-21T06:22:26;23.90;54.70
30520;DHT22;17300;50.374;8.006;2022-08-21T06:24:54;24.70;54.20
30520;DHT22;17300;50.374;8.006;2022-08-21T06:27:21;25.40;53.50
30520;DHT22;17300;50.374;8.006;2022-08-21T06:29:47;26.20;52.90
30520;DHT22;17300;50.374;8.006;2022-08-21T06:32:15;26.90;52.20
30520;DHT22;17300;50.374;8.006;2022-08-21T06:34:42;27.70;51.30
30520;DHT22;17300;50.374;8.006;2022-08-21T06:37:09;28.50;50.70
30520;DHT22;17300;50.374;8.006;2022-08-21T06:39:36;29.20;49.80
30520;DHT22;17300;50.374;8.006;2022-08-21T06:42:03;30.00;48.70
30520;DHT22;17300;50.374;8.006;2022-08-21T06:44:30;30.60;47.50
30520;DHT22;17300;50.374;8.006;2022-08-21T06:46:57;31.30;46.40
30520;DHT22;17300;50.374;8.006;2022-08-21T06:49:25;32.00;45.50
30520;DHT22;17300;50.374;8.006;2022-08-21T06:51:52;32.60;44.20
30520;DHT22;17300;50.374;8.006;2022-08-21T06:54:19;33.20;43.40
30520;DHT22;17300;50.374;8.006;2022-08-21T06:56:45;33.80;42.10
30520;DHT22;17300;50.374;8.006;2022-08-21T06:59:12;34.20;41.10
30520;DHT22;17300;50.374;8.006;2022-08-21T07:01:39;34.80;40.40
30520;DHT22;17300;50.374;8.006;2022-08-21T07:04:06;35.30;39.60
30520;DHT22;17300;50.374;8.006;2022-08-21T07:06:35;35.70;38.80
30520;DHT22;17300;50.374;8.006;2022-08-21T07:09:01;36.20;37.70
30520;DHT22;17300;50.374;8.006;2022-08-21T07:11:28;36.60;37.20
30520;DHT22;17300;50.374;8.006;2022-08-21T07:13:55;37.10;36.50
30520;DHT22;17300;50.374;8.006;2022-08-21T07:16:24;37.50;35.60
30520;DHT22;17300;50.374;8.006;2022-08-21T07:18:51;37.90;34.70
30520;DHT22;17300;50.374;8.006;2022-08-21T07:21:29;38.30;34.00
30520;DHT22;17300;50.374;8.006;2022-08-21T07:24:23;38.80;32.50
30520;DHT22;17300;50.374;8.006;2022-08-21T07:30:16;39.50;32.50
30520;DHT22;17300;50.374;8.006;2022-08-21T07:32:43;39.90;31.70
30520;DHT22;17300;50.374;8.006;2022-08-21T07:35:11;40.20;31.10
30520;DHT22;17300;50.374;8.006;2022-08-21T07:38:24;40.60;30.60
30520;DHT22;17300;50.374;8.006;2022-08-21T07:41:15;40.90;29.60
30520;DHT22;17300;50.374;8.006;2022-08-21T07:43:42;41.40;29.20
30520;DHT22;17300;50.374;8.006;2022-08-21T07:46:09;41.80;29.40
30520;DHT22;17300;50.374;8.006;2022-08-21T07:48:36;42.10;28.90
30520;DHT22;17300;50.374;8.006;2022-08-21T07:51:07;42.30;28.40
30520;DHT22;17300;50.374;8.006;2022-08-21T07:53:35;42.70;27.90
30520;DHT22;17300;50.374;8.006;2022-08-21T07:56:03;43.00;27.90
30520;DHT22;17300;50.374;8.006;2022-08-21T07:58:31;43.40;27.60
30520;DHT22;17300;50.374;8.006;2022-08-21T08:00:59;43.70;27.20
30520;DHT22;17300;50.374;8.006;2022-08-21T08:03:26;44.10;26.90
30520;DHT22;17300;50.374;8.006;2022-08-21T08:05:52;44.40;26.50
30520;DHT22;17300;50.374;8.006;2022-08-21T08:08:19;44.70;26.30
30520;DHT22;17300;50.374;8.006;2022-08-21T08:10:46;45.10;26.10
30520;DHT22;17300;50.374;8.006;2022-08-21T08:13:14;45.40;25.70
30520;DHT22;17300;50.374;8.006;2022-08-21T08:15:43;45.60;25.30
30520;DHT22;17300;50.374;8.006;2022-08-21T08:18:09;45.90;25.00
30520;DHT22;17300;50.374;8.006;2022-08-21T08:20:36;46.20;24.90
30520;DHT22;17300;50.374;8.006;2022-08-21T08:23:03;46.50;24.60
30520;DHT22;17300;50.374;8.006;2022-08-21T08:25:30;46.70;24.20
30520;DHT22;17300;50.374;8.006;2022-08-21T08:27:56;47.00;23.90
30520;DHT22;17300;50.374;8.006;2022-08-21T08:30:23;47.20;23.80
30520;DHT22;17300;50.374;8.006;2022-08-21T08:32:51;47.30;23.60
30520;DHT22;17300;50.374;8.006;2022-08-21T08:35:18;47.50;23.20
30520;DHT22;17300;50.374;8.006;2022-08-21T08:37:45;47.70;23.10
30520;DHT22;17300;50.374;8.006;2022-08-21T08:40:14;48.00;23.10
30520;DHT22;17300;50.374;8.006;2022-08-21T08:42:45;48.00;22.50
30520;DHT22;17300;50.374;8.006;2022-08-21T08:45:16;48.30;22.60
30520;DHT22;17300;50.374;8.006;2022-08-21T08:47:45;48.40;22.30
30520;DHT22;17300;50.374;8.006;2022-08-21T08:50:18;48.60;22.30
30520;DHT22;17300;50.374;8.006;2022-08-21T08:52:49;48.80;22.20
30520;DHT22;17300;50.374;8.006;2022-08-21T08:55:23;49.00;22.20
30520;DHT22;17300;50.374;8.006;2022-08-21T08:57:52;49.30;21.90
30520;DHT22;17300;50.374;8.006;2022-08-21T09:00:20;49.50;21.80
30520;DHT22;17300;50.374;8.006;2022-08-21T09:02:50;49.70;21.70
30520;DHT22;17300;50.374;8.006;2022-08-21T09:05:22;49.90;21.40
30520;DHT22;17300;50.374;8.006;2022-08-21T09:08:07;50.10;21.00
30520;DHT22;17300;50.374;8.006;2022-08-21T09:10:47;50.20;20.90
30520;DHT22;17300;50.374;8.006;2022-08-21T09:13:24;50.40;21.00
30520;DHT22;17300;50.374;8.006;2022-08-21T09:16:00;50.60;20.90
30520;DHT22;17300;50.374;8.006;2022-08-21T09:18:39;50.80;20.60
30520;DHT22;17300;50.374;8.006;2022-08-21T09:21:26;50.90;20.30
30520;DHT22;17300;50.374;8.006;2022-08-21T09:24:00;51.00;20.40
30520;DHT22;17300;50.374;8.006;2022-08-21T09:26:43;51.10;20.20
30520;DHT22;17300;50.374;8.006;2022-08-21T09:29:13;51.10;19.90
30520;DHT22;17300;50.374;8.006;2022-08-21T09:31:41;51.20;20.10
30520;DHT22;17300;50.374;8.006;2022-08-21T09:34:11;51.30;19.90
30520;DHT22;17300;50.374;8.006;2022-08-21T09:36:42;51.30;19.70
30520;DHT22;17300;50.374;8.006;2022-08-21T09:39:23;51.40;19.50
30520;DHT22;17300;50.374;8.006;2022-08-21T09:41:56;51.40;19.30
30520;DHT22;17300;50.374;8.006;2022-08-21T09:44:26;51.50;19.30
30520;DHT22;17300;50.374;8.006;2022-08-21T09:46:53;51.50;19.30
30520;DHT22;17300;50.374;8.006;2022-08-21T09:49:27;51.40;19.10
30520;DHT22;17300;50.374;8.006;2022-08-21T09:51:56;51.30;18.80
30520;DHT22;17300;50.374;8.006;2022-08-21T09:54:26;51.00;18.40
30520;DHT22;17300;50.374;8.006;2022-08-21T09:56:57;50.50;18.20
30520;DHT22;17300;50.374;8.006;2022-08-21T09:59:43;50.10;18.60
30520;DHT22;17300;50.374;8.006;2022-08-21T10:02:26;49.80;19.10
30520;DHT22;17300;50.374;8.006;2022-08-21T10:04:55;49.60;19.30
30520;DHT22;17300;50.374;8.006;2022-08-21T10:07:25;49.60;19.30
30520;DHT22;17300;50.374;8.006;2022-08-21T10:10:01;49.80;19.30
30520;DHT22;17300;50.374;8.006;2022-08-21T10:12:35;49.90;19.00
30520;DHT22;17300;50.374;8.006;2022-08-21T10:15:10;50.10;19.00
30520;DHT22;17300;50.374;8.006;2022-08-21T10:17:46;50.30;18.80
30520;DHT22;17300;50.374;8.006;2022-08-21T10:20:20;50.60;18.50
30520;DHT22;17300;50.374;8.006;2022-08-21T10:23:01;50.70;18.30
30520;DHT22;17300;50.374;8.006;2022-08-21T10:25:33;51.00;18.10
30520;DHT22;17300;50.374;8.006;2022-08-21T10:28:07;51.00;17.90
30520;DHT22;17300;50.374;8.006;2022-08-21T10:30:41;51.10;17.80
30520;DHT22;17300;50.374;8.006;2022-08-21T10:33:28;51.00;17.60
30520;DHT22;17300;50.374;8.006;2022-08-21T10:36:04;51.00;17.70
30520;DHT22;17300;50.374;8.006;2022-08-21T10:38:49;51.10;17.70
30520;DHT22;17300;50.374;8.006;2022-08-21T10:41:29;51.20;17.80
30520;DHT22;17300;50.374;8.006;2022-08-21T10:44:03;51.20;17.70
30520;DHT22;17300;50.374;8.006;2022-08-21T10:46:42;51.20;17.60
30520;DHT22;17300;50.374;8.006;2022-08-21T10:49:22;51.30;17.30
30520;DHT22;17300;50.374;8.006;2022-08-21T10:51:54;51.30;17.10
30520;DHT22;17300;50.374;8.006;2022-08-21T10:54:30;51.20;16.90
30520;DHT22;17300;50.374;8.006;2022-08-21T10:57:05;51.20;17.00
30520;DHT22;17300;50.374;8.006;2022-08-21T10:59:39;51.10;17.00
30520;DHT22;17300;50.374;8.006;2022-08-21T11:02:14;51.00;16.80
30520;DHT22;17300;50.374;8.006;2022-08-21T11:04:50;50.90;16.70
30520;DHT22;17300;50.374;8.006;2022-08-21T11:07:22;50.70;17.40
30520;DHT22;17300;50.374;8.006;2022-08-21T11:09:56;50.50;17.00
30520;DHT22;17300;50.374;8.006;2022-08-21T11:12:27;50.30;16.90
30520;DHT22;17300;50.374;8.006;2022-08-21T11:15:00;50.10;17.00
30520;DHT22;17300;50.374;8.006;2022-08-21T11:17:34;49.90;17.00
30520;DHT22;17300;50.374;8.006;2022-08-21T11:20:07;49.60;16.90
30520;DHT22;17300;50.374;8.006;2022-08-21T11:22:41;49.60;17.00
30520;DHT22;17300;50.374;8.006;2022-08-21T11:25:20;49.30;16.90
30520;DHT22;17300;50.374;8.006;2022-08-21T11:27:51;49.10;16.90
30520;DHT22;17300;50.374;8.006;2022-08-21T11:30:20;48.80;16.80
30520;DHT22;17300;50.374;8.006;2022-08-21T11:33:08;48.40;16.90
30520;DHT22;17300;50.374;8.006;2022-08-21T11:35:45;48.00;16.70
30520;DHT22;17300;50.374;8.006;2022-08-21T11:38:24;47.60;16.40
30520;DHT22;17300;50.374;8.006;2022-08-21T11:41:06;47.00;16.50
30520;DHT22;17300;50.374;8.006;2022-08-21T11:43:40;46.60;16.90
30520;DHT22;17300;50.374;8.006;2022-08-21T11:46:22;46.10;16.90
30520;DHT22;17300;50.374;8.006;2022-08-21T11:49:02;45.50;17.10
30520;DHT22;17300;50.374;8.006;2022-08-21T11:51:36;44.90;17.00
30520;DHT22;17300;50.374;8.006;2022-08-21T11:54:07;44.40;17.20
30520;DHT22;17300;50.374;8.006;2022-08-21T11:56:41;43.90;17.20
30520;DHT22;17300;50.374;8.006;2022-08-21T11:59:13;43.30;17.50
30520;DHT22;17300;50.374;8.006;2022-08-21T12:01:46;42.80;17.40
30520;DHT22;17300;50.374;8.006;2022-08-21T12:04:21;42.30;17.70
30520;DHT22;17300;50.374;8.006;2022-08-21T12:06:49;41.80;17.70
30520;DHT22;17300;50.374;8.006;2022-08-21T12:09:31;41.40;18.00
30520;DHT22;17300;50.374;8.006;2022-08-21T12:12:05;40.90;18.20
30520;DHT22;17300;50.374;8.006;2022-08-21T12:14:37;40.50;18.50
30520;DHT22;17300;50.374;8.006;2022-08-21T12:17:06;40.10;18.70
30520;DHT22;17300;50.374;8.006;2022-08-21T12:19:33;39.80;18.70
30520;DHT22;17300;50.374;8.006;2022-08-21T12:22:09;39.50;18.90
30520;DHT22;17300;50.374;8.006;2022-08-21T12:24:38;39.20;19.20
30520;DHT22;17300;50.374;8.006;2022-08-21T12:27:20;39.00;19.20
30520;DHT22;17300;50.374;8.006;2022-08-21T12:29:53;38.70;19.50
30520;DHT22;17300;50.374;8.006;2022-08-21T12:32:26;38.40;19.60
30520;DHT22;17300;50.374;8.006;2022-08-21T12:34:56;38.20;19.80
30520;DHT22;17300;50.374;8.006;2022-08-21T12:37:30;37.90;19.70
30520;DHT22;17300;50.374;8.006;2022-08-21T12:40:06;37.70;19.60
30520;DHT22;17300;50.374;8.006;2022-08-21T12:42:45;37.50;20.10
30520;DHT22;17300;50.374;8.006;2022-08-21T12:45:18;37.30;20.30
30520;DHT22;17300;50.374;8.006;2022-08-21T12:47:48;37.10;20.40
30520;DHT22;17300;50.374;8.006;2022-08-21T12:50:20;36.90;20.60
30520;DHT22;17300;50.374;8.006;2022-08-21T12:52:54;36.80;20.60
30520;DHT22;17300;50.374;8.006;2022-08-21T12:55:31;36.60;21.00
30520;DHT22;17300;50.374;8.006;2022-08-21T12:58:00;36.50;21.00
30520;DHT22;17300;50.374;8.006;2022-08-21T13:00:29;36.40;21.30
30520;DHT22;17300;50.374;8.006;2022-08-21T13:02:56;36.30;20.90
30520;DHT22;17300;50.374;8.006;2022-08-21T13:05:29;36.30;21.10
30520;DHT22;17300;50.374;8.006;2022-08-21T13:07:57;36.20;21.10
30520;DHT22;17300;50.374;8.006;2022-08-21T13:10:27;36.20;21.20
30520;DHT22;17300;50.374;8.006;2022-08-21T13:13:02;36.10;21.10
30520;DHT22;17300;50.374;8.006;2022-08-21T13:15:32;36.00;21.10
30520;DHT22;17300;50.374;8.006;2022-08-21T13:18:08;35.90;20.90
30520;DHT22;17300;50.374;8.006;2022-08-21T13:20:36;35.80;21.10
30520;DHT22;17300;50.374;8.006;2022-08-21T13:23:07;35.80;21.50
30520;DHT22;17300;50.374;8.006;2022-08-21T13:25:42;35.70;21.50
30520;DHT22;17300;50.374;8.006;2022-08-21T13:28:12;35.70;21.60
30520;DHT22;17300;50.374;8.006;2022-08-21T13:30:42;35.60;21.80
30520;DHT22;17300;50.374;8.006;2022-08-21T13:33:11;35.50;21.90
30520;DHT22;17300;50.374;8.006;2022-08-21T13:35:47;35.50;22.20
30520;DHT22;17300;50.374;8.006;2022-08-21T13:38:15;35.40;21.80
30520;DHT22;17300;50.374;8.006;2022-08-21T13:40:46;35.40;21.80
30520;DHT22;17300;50.374;8.006;2022-08-21T13:43:19;35.30;22.00
30520;DHT22;17300;50.374;8.006;2022-08-21T13:45:52;35.20;21.80
30520;DHT22;17300;50.374;8.006;2022-08-21T13:48:20;35.10;22.10
30520;DHT22;17300;50.374;8.006;2022-08-21T13:50:49;35.00;22.40
30520;DHT22;17300;50.374;8.006;2022-08-21T13:53:29;34.90;22.20
30520;DHT22;17300;50.374;8.006;2022-08-21T13:55:58;34.80;22.20
30520;DHT22;17300;50.374;8.006;2022-08-21T13:58:28;34.80;22.30
30520;DHT22;17300;50.374;8.006;2022-08-21T14:00:56;34.70;22.30
30520;DHT22;17300;50.374;8.006;2022-08-21T14:03:27;34.60;22.30
30520;DHT22;17300;50.374;8.006;2022-08-21T14:05:55;34.50;22.40
30520;DHT22;17300;50.374;8.006;2022-08-21T14:08:27;34.50;22.50
30520;DHT22;17300;50.374;8.006;2022-08-21T14:10:56;34.40;22.40
30520;DHT22;17300;50.374;8.006;2022-08-21T14:13:36;34.30;22.40
30520;DHT22;17300;50.374;8.006;2022-08-21T14:16:15;34.20;22.50
30520;DHT22;17300;50.374;8.006;2022-08-21T14:18:45;34.20;22.40
30520;DHT22;17300;50.374;8.006;2022-08-21T14:21:11;34.10;22.50
30520;DHT22;17300;50.374;8.006;2022-08-21T14:23:39;34.10;22.70
30520;DHT22;17300;50.374;8.006;2022-08-21T14:26:07;34.00;22.50
30520;DHT22;17300;50.374;8.006;2022-08-21T14:28:39;33.90;22.90
30520;DHT22;17300;50.374;8.006;2022-08-21T14:31:17;33.90;23.10
30520;DHT22;17300;50.374;8.006;2022-08-21T14:33:44;33.80;23.30
30520;DHT22;17300;50.374;8.006;2022-08-21T14:36:11;33.80;23.20
30520;DHT22;17300;50.374;8.006;2022-08-21T14:38:40;33.70;23.20
30520;DHT22;17300;50.374;8.006;2022-08-21T14:41:15;33.50;23.10
30520;DHT22;17300;50.374;8.006;2022-08-21T14:43:48;33.50;23.30
30520;DHT22;17300;50.374;8.006;2022-08-21T14:46:20;33.30;23.40
30520;DHT22;17300;50.374;8.006;2022-08-21T14:48:47;33.20;23.40
30520;DHT22;17300;50.374;8.006;2022-08-21T14:51:15;33.10;23.40
30520;DHT22;17300;50.374;8.006;2022-08-21T14:53:41;32.90;23.30
30520;DHT22;17300;50.374;8.006;2022-08-21T14:56:08;32.80;23.50
30520;DHT22;17300;50.374;8.006;2022-08-21T14:58:39;32.60;23.60
30520;DHT22;17300;50.374;8.006;2022-08-21T15:01:08;32.60;23.90
30520;DHT22;17300;50.374;8.006;2022-08-21T15:03:36;32.50;24.00
30520;DHT22;17300;50.374;8.006;2022-08-21T15:06:05;32.40;24.00
30520;DHT22;17300;50.374;8.006;2022-08-21T15:08:32;32.30;24.20
30520;DHT22;17300;50.374;8.006;2022-08-21T15:11:00;32.30;24.20
30520;DHT22;17300;50.374;8.006;2022-08-21T15:13:28;32.20;24.40
30520;DHT22;17300;50.374;8.006;2022-08-21T15:15:56;32.20;24.40
30520;DHT22;17300;50.374;8.006;2022-08-21T15:18:27;32.00;24.30
30520;DHT22;17300;50.374;8.006;2022-08-21T15:20:54;32.00;24.40
30520;DHT22;17300;50.374;8.006;2022-08-21T15:23:21;31.90;24.50
30520;DHT22;17300;50.374;8.006;2022-08-21T15:25:48;31.80;24.50
30520;DHT22;17300;50.374;8.006;2022-08-21T15:28:16;31.80;24.60
30520;DHT22;17300;50.374;8.006;2022-08-21T15:30:45;31.70;24.60
30520;DHT22;17300;50.374;8.006;2022-08-21T15:33:12;31.60;24.60
30520;DHT22;17300;50.374;8.006;2022-08-21T15:35:41;31.60;24.60
30520;DHT22;17300;50.374;8.006;2022-08-21T15:38:08;31.50;24.70
30520;DHT22;17300;50.374;8.006;2022-08-21T15:40:35;31.50;25.00
30520;DHT22;17300;50.374;8.006;2022-08-21T15:43:04;31.40;25.10
30520;DHT22;17300;50.374;8.006;2022-08-21T15:45:32;31.30;25.20
30520;DHT22;17300;50.374;8.006;2022-08-21T15:47:59;31.30;25.20
30520;DHT22;17300;50.374;8.006;2022-08-21T15:50:28;31.20;25.20
30520;DHT22;17300;50.374;8.006;2022-08-21T15:52:58;31.20;25.20